createdAt,value
2023-02-21T00:00:05.674Z,437.10
2023-02-21T00:01:05.614Z,390.80
2023-02-21T00:02:05.616Z,374.30
2023-02-21T00:03:05.592Z,449.10
2023-02-21T00:04:05.585Z,431.20
2023-02-21T00:05:05.638Z,424.80
2023-02-21T00:06:05.594Z,427.90
2023-02-21T00:07:05.569Z,426.20
2023-02-21T00:08:05.547Z,419.90
2023-02-21T00:09:05.541Z,376.90
2023-02-21T00:10:05.548Z,298.00
2023-02-21T00:11:05.519Z,375.50
2023-02-21T00:12:05.510Z,380.20
2023-02-21T00:13:05.500Z,323.00
2023-02-21T00:14:05.486Z,288.40
2023-02-21T00:15:05.511Z,368.40
2023-02-21T00:16:05.468Z,356.80
2023-02-21T00:17:05.476Z,372.80
2023-02-21T00:18:05.449Z,375.30
2023-02-21T00:19:05.438Z,282.10
2023-02-21T00:20:05.447Z,333.20
2023-02-21T00:21:05.416Z,350.10
2023-02-21T00:22:05.405Z,334.20
2023-02-21T00:23:05.408Z,337.40
2023-02-21T00:24:05.391Z,340.30
2023-02-21T00:25:05.405Z,294.40
2023-02-21T00:26:05.367Z,325.10
2023-02-21T00:27:05.378Z,293.00
2023-02-21T00:28:05.343Z,323.40
2023-02-21T00:29:05.336Z,328.10
2023-02-21T00:30:05.381Z,350.00
2023-02-21T00:31:05.378Z,252.80
2023-02-21T00:32:05.297Z,266.60
2023-02-21T00:33:07.137Z,311.70
2023-02-21T00:34:05.280Z,336.50
2023-02-21T00:35:05.272Z,276.30
2023-02-21T00:36:05.301Z,296.90
2023-02-21T00:37:05.261Z,305.90
2023-02-21T00:38:05.240Z,285.90
2023-02-21T00:39:05.237Z,355.50
2023-02-21T00:40:05.243Z,373.60
2023-02-21T00:41:05.209Z,239.30
2023-02-21T00:42:05.198Z,291.30
2023-02-21T00:43:05.190Z,374.00
2023-02-21T00:44:05.179Z,364.50
2023-02-21T00:45:05.202Z,333.40
2023-02-21T00:46:05.290Z,318.60
2023-02-21T00:47:05.154Z,384.70
2023-02-21T00:48:05.138Z,395.80
2023-02-21T00:49:05.129Z,332.50
2023-02-21T00:50:05.142Z,418.90
2023-02-21T00:51:05.114Z,441.90
2023-02-21T00:52:05.102Z,430.70
2023-02-21T00:53:05.105Z,419.70
2023-02-21T00:54:05.075Z,421.40
2023-02-21T00:55:05.100Z,448.30
2023-02-21T00:56:05.055Z,433.30
2023-02-21T00:57:05.060Z,451.30
2023-02-21T00:58:05.036Z,385.60
2023-02-21T00:59:05.031Z,453.80
2023-02-21T01:00:05.044Z,481.00
2023-02-21T01:01:05.025Z,389.40
2023-02-21T01:02:04.998Z,428.70
2023-02-21T01:03:04.988Z,489.60
2023-02-21T01:04:05.010Z,442.30
2023-02-21T01:05:05.019Z,486.10
2023-02-21T01:06:04.985Z,439.30
2023-02-21T01:07:04.961Z,474.80
2023-02-21T01:08:04.939Z,471.30
2023-02-21T01:09:04.952Z,495.30
2023-02-21T01:10:04.929Z,525.60
2023-02-21T01:11:04.947Z,475.40
2023-02-21T01:12:04.897Z,430.50
2023-02-21T01:13:04.897Z,493.10
2023-02-21T01:14:04.878Z,491.60
2023-02-21T01:15:04.880Z,488.80
2023-02-21T01:16:04.882Z,490.70
2023-02-21T01:17:12.768Z,543.00
2023-02-21T01:18:04.845Z,519.40
2023-02-21T01:19:04.837Z,508.90
2023-02-21T01:20:04.825Z,511.50
2023-02-21T01:21:04.845Z,494.20
2023-02-21T01:22:04.804Z,531.10
2023-02-21T01:23:04.795Z,515.00
2023-02-21T01:24:04.790Z,514.40
2023-02-21T01:25:04.780Z,471.90
2023-02-21T01:26:04.786Z,483.20
2023-02-21T01:27:04.786Z,511.30
2023-02-21T01:28:04.739Z,547.70
2023-02-21T01:29:04.735Z,530.70
2023-02-21T01:30:04.748Z,515.20
2023-02-21T01:31:04.776Z,481.70
2023-02-21T01:32:04.761Z,520.60
2023-02-21T01:33:04.697Z,474.70
2023-02-21T01:34:04.688Z,431.50
2023-02-21T01:35:04.719Z,449.50
2023-02-21T01:36:04.692Z,490.90
2023-02-21T01:37:04.662Z,456.60
2023-02-21T01:38:04.661Z,477.40
2023-02-21T01:39:04.635Z,516.90
2023-02-21T01:40:04.615Z,435.20
2023-02-21T01:41:04.641Z,491.70
2023-02-21T01:42:04.590Z,542.70
2023-02-21T01:43:04.588Z,469.60
2023-02-21T01:44:04.576Z,532.10
2023-02-21T01:45:04.629Z,540.20
2023-02-21T01:46:04.604Z,492.70
2023-02-21T01:47:04.557Z,539.70
2023-02-21T01:48:04.530Z,560.10
2023-02-21T01:49:04.529Z,516.90
2023-02-21T01:50:04.514Z,540.80
2023-02-21T01:51:04.536Z,546.60
2023-02-21T01:52:04.525Z,541.10
2023-02-21T01:53:04.488Z,544.70
2023-02-21T01:54:04.475Z,474.50
2023-02-21T01:55:04.494Z,520.90
2023-02-21T01:56:04.486Z,535.70
2023-02-21T01:57:04.465Z,565.20
2023-02-21T01:58:04.817Z,536.50
2023-02-21T01:59:04.477Z,559.70
2023-02-21T02:00:04.412Z,558.50
2023-02-21T02:01:04.431Z,594.50
2023-02-21T02:02:04.399Z,524.50
2023-02-21T02:03:04.399Z,529.80
2023-02-21T02:04:06.750Z,559.10
2023-02-21T02:05:04.364Z,530.40
2023-02-21T02:06:04.381Z,552.20
2023-02-21T02:07:04.375Z,567.40
2023-02-21T02:08:04.369Z,560.20
2023-02-21T02:09:04.340Z,531.10
2023-02-21T02:10:04.314Z,556.10
2023-02-21T02:11:04.313Z,521.50
2023-02-21T02:12:04.299Z,542.10
2023-02-21T02:13:04.314Z,587.00
2023-02-21T02:14:04.283Z,550.00
2023-02-21T02:15:04.275Z,539.70
2023-02-21T02:16:04.336Z,567.90
2023-02-21T02:17:04.258Z,554.50
2023-02-21T02:18:04.234Z,568.40
2023-02-21T02:19:04.233Z,569.10
2023-02-21T02:20:04.219Z,575.40
2023-02-21T02:21:04.240Z,560.90
2023-02-21T02:22:04.199Z,533.40
2023-02-21T02:23:04.195Z,571.60
2023-02-21T02:24:04.185Z,573.90
2023-02-21T02:25:04.175Z,508.70
2023-02-21T02:26:04.182Z,524.00
2023-02-21T02:27:04.172Z,547.90
2023-02-21T02:28:04.167Z,522.70
2023-02-21T02:29:04.136Z,576.90
2023-02-21T02:30:04.160Z,565.40
2023-02-21T02:31:04.241Z,555.50
2023-02-21T02:32:04.274Z,561.70
2023-02-21T02:33:04.091Z,549.70
2023-02-21T02:34:04.106Z,570.80
2023-02-21T02:35:04.079Z,587.00
2023-02-21T02:36:04.092Z,551.20
2023-02-21T02:37:04.060Z,551.60
2023-02-21T02:38:04.043Z,565.50
2023-02-21T02:39:04.025Z,536.10
2023-02-21T02:40:04.026Z,572.80
2023-02-21T02:41:04.040Z,463.60
2023-02-21T02:42:04.029Z,496.00
2023-02-21T02:43:03.987Z,528.30
2023-02-21T02:44:03.986Z,575.10
2023-02-21T02:45:03.974Z,568.80
2023-02-21T02:46:04.058Z,552.50
2023-02-21T02:47:03.973Z,486.40
2023-02-21T02:48:03.951Z,534.00
2023-02-21T02:49:03.927Z,548.10
2023-02-21T02:50:03.933Z,507.30
2023-02-21T02:51:03.940Z,534.90
2023-02-21T02:52:03.917Z,544.50
2023-02-21T02:53:03.891Z,576.80
2023-02-21T02:54:03.918Z,611.60
2023-02-21T02:55:03.877Z,612.00
2023-02-21T02:56:03.889Z,531.30
2023-02-21T02:57:03.871Z,513.10
2023-02-21T02:58:03.855Z,533.10
2023-02-21T02:59:03.829Z,531.70
2023-02-21T03:00:03.829Z,458.50
2023-02-21T03:01:03.838Z,502.00
2023-02-21T03:02:03.815Z,482.10
2023-02-21T03:03:03.801Z,503.00
2023-02-21T03:04:03.797Z,511.30
2023-02-21T03:05:03.773Z,531.20
2023-02-21T03:06:03.791Z,566.50
2023-02-21T03:07:03.764Z,527.40
2023-02-21T03:08:03.744Z,560.60
2023-02-21T03:09:03.763Z,515.80
2023-02-21T03:10:03.723Z,571.90
2023-02-21T03:11:03.711Z,572.70
2023-02-21T03:12:03.714Z,617.00
2023-02-21T03:13:03.696Z,601.70
2023-02-21T03:14:03.762Z,586.80
2023-02-21T03:15:03.670Z,563.40
2023-02-21T03:16:03.738Z,564.50
2023-02-21T03:17:03.688Z,574.60
2023-02-21T03:18:03.648Z,578.70
2023-02-21T03:19:03.652Z,582.00
2023-02-21T03:20:03.631Z,585.90
2023-02-21T03:21:03.633Z,540.10
2023-02-21T03:22:03.611Z,592.60
2023-02-21T03:23:03.596Z,649.90
2023-02-21T03:24:03.589Z,622.80
2023-02-21T03:25:03.575Z,590.20
2023-02-21T03:26:03.623Z,607.00
2023-02-21T03:27:03.565Z,515.70
2023-02-21T03:28:03.546Z,557.40
2023-02-21T03:29:03.536Z,569.30
2023-02-21T03:30:03.571Z,531.20
2023-02-21T03:31:03.539Z,509.50
2023-02-21T03:32:03.515Z,567.70
2023-02-21T03:33:03.489Z,578.50
2023-02-21T03:34:03.486Z,573.10
2023-02-21T03:35:03.492Z,558.40
2023-02-21T03:36:03.490Z,513.80
2023-02-21T03:37:03.469Z,538.20
2023-02-21T03:38:03.440Z,556.30
2023-02-21T03:39:03.432Z,581.70
2023-02-21T03:40:03.428Z,566.80
2023-02-21T03:41:03.436Z,602.80
2023-02-21T03:42:03.431Z,518.90
2023-02-21T03:43:03.398Z,538.20
2023-02-21T03:44:03.382Z,490.30
2023-02-21T03:45:03.387Z,553.20
2023-02-21T03:46:03.386Z,557.30
2023-02-21T03:47:03.367Z,546.40
2023-02-21T03:48:03.352Z,477.20
2023-02-21T03:49:03.329Z,547.30
2023-02-21T03:50:03.343Z,520.90
2023-02-21T03:51:03.322Z,523.40
2023-02-21T03:52:03.311Z,515.30
2023-02-21T03:53:03.300Z,506.00
2023-02-21T03:54:03.284Z,465.30
2023-02-21T03:55:03.306Z,536.50
2023-02-21T03:56:03.258Z,528.10
2023-02-21T03:57:03.263Z,545.50
2023-02-21T03:58:03.246Z,529.70
2023-02-21T03:59:03.265Z,543.70
2023-02-21T04:00:03.245Z,546.20
2023-02-21T04:01:03.282Z,540.80
2023-02-21T04:02:03.212Z,558.10
2023-02-21T04:03:03.185Z,561.60
2023-02-21T04:04:03.183Z,576.10
2023-02-21T04:05:03.199Z,556.40
2023-02-21T04:06:03.184Z,523.80
2023-02-21T04:07:03.163Z,594.00
2023-02-21T04:08:03.139Z,437.30
2023-02-21T04:09:03.138Z,575.50
2023-02-21T04:10:03.126Z,528.20
2023-02-21T04:11:03.109Z,571.30
2023-02-21T04:12:03.130Z,572.60
2023-02-21T04:13:03.102Z,606.70
2023-02-21T04:14:03.079Z,541.50
2023-02-21T04:15:03.069Z,572.80
2023-02-21T04:16:03.084Z,501.80
2023-02-21T04:17:03.088Z,554.70
2023-02-21T04:18:03.045Z,580.50
2023-02-21T04:19:03.027Z,607.50
2023-02-21T04:20:03.019Z,632.50
2023-02-21T04:21:03.004Z,584.00
2023-02-21T04:22:03.045Z,538.80
2023-02-21T04:23:03.972Z,605.60
2023-02-21T04:24:02.981Z,615.80
2023-02-21T04:25:02.968Z,604.50
2023-02-21T04:26:02.964Z,613.40
2023-02-21T04:27:02.976Z,599.60
2023-02-21T04:28:02.944Z,627.50
2023-02-21T04:29:02.938Z,560.30
2023-02-21T04:30:02.934Z,587.10
2023-02-21T04:31:02.907Z,540.30
2023-02-21T04:32:02.999Z,577.20
2023-02-21T04:33:02.883Z,618.00
2023-02-21T04:34:11.833Z,629.60
2023-02-21T04:35:02.874Z,630.30
2023-02-21T04:36:02.872Z,624.10
2023-02-21T04:37:02.883Z,633.90
2023-02-21T04:38:02.846Z,638.10
2023-02-21T04:39:02.836Z,645.10
2023-02-21T04:40:02.826Z,628.30
2023-02-21T04:41:02.811Z,618.60
2023-02-21T04:42:02.833Z,587.40
2023-02-21T04:43:02.819Z,634.20
2023-02-21T04:44:02.787Z,618.80
2023-02-21T04:45:02.766Z,604.90
2023-02-21T04:46:02.792Z,638.50
2023-02-21T04:47:02.827Z,661.90
2023-02-21T04:48:02.742Z,546.70
2023-02-21T04:49:02.736Z,571.00
2023-02-21T04:50:02.722Z,592.70
2023-02-21T04:51:14.829Z,648.30
2023-02-21T04:52:02.720Z,664.10
2023-02-21T04:53:02.701Z,646.00
2023-02-21T04:54:02.685Z,620.00
2023-02-21T04:55:02.692Z,664.30
2023-02-21T04:56:02.658Z,652.90
2023-02-21T04:57:02.674Z,667.10
2023-02-21T04:58:02.641Z,631.30
2023-02-21T04:59:02.626Z,622.10
2023-02-21T05:00:02.632Z,643.20
2023-02-21T05:01:02.660Z,647.30
2023-02-21T05:02:03.078Z,683.00
2023-02-21T05:03:02.604Z,633.40
2023-02-21T05:04:02.633Z,637.00
2023-02-21T05:05:02.679Z,642.40
2023-02-21T05:06:02.590Z,660.50
2023-02-21T05:07:02.588Z,603.50
2023-02-21T05:08:02.541Z,580.60
2023-02-21T05:09:02.543Z,635.40
2023-02-21T05:10:02.528Z,626.10
2023-02-21T05:11:02.510Z,639.70
2023-02-21T05:12:02.551Z,640.70
2023-02-21T05:13:02.500Z,599.50
2023-02-21T05:14:02.481Z,620.00
2023-02-21T05:15:02.466Z,653.20
2023-02-21T05:16:02.462Z,648.90
2023-02-21T05:17:02.536Z,643.10
2023-02-21T05:18:02.437Z,591.00
2023-02-21T05:19:02.431Z,634.80
2023-02-21T05:20:02.426Z,655.10
2023-02-21T05:21:03.449Z,582.90
2023-02-21T05:22:02.436Z,622.60
2023-02-21T05:23:13.120Z,577.40
2023-02-21T05:24:02.390Z,638.80
2023-02-21T05:25:02.363Z,650.60
2023-02-21T05:26:08.353Z,617.80
2023-02-21T05:27:02.348Z,566.10
2023-02-21T05:28:02.320Z,591.20
2023-02-21T05:29:02.302Z,617.90
2023-02-21T05:30:02.310Z,596.70
2023-02-21T05:31:02.453Z,600.60
2023-02-21T05:32:02.388Z,620.10
2023-02-21T05:33:02.297Z,601.80
2023-02-21T05:34:02.303Z,589.60
2023-02-21T05:35:02.300Z,606.50
2023-02-21T05:36:02.254Z,601.80
2023-02-21T05:37:02.241Z,580.40
2023-02-21T05:38:02.224Z,571.40
2023-02-21T05:39:02.256Z,558.90
2023-02-21T05:40:02.202Z,560.70
2023-02-21T05:41:02.180Z,579.50
2023-02-21T05:42:02.200Z,588.80
2023-02-21T05:43:02.183Z,606.00
2023-02-21T05:44:02.166Z,524.20
2023-02-21T05:45:02.168Z,539.90
2023-02-21T05:46:02.213Z,570.60
2023-02-21T05:47:02.176Z,556.90
2023-02-21T05:48:02.116Z,591.60
2023-02-21T05:49:02.105Z,575.70
2023-02-21T05:50:02.113Z,615.10
2023-02-21T05:51:02.083Z,571.00
2023-02-21T05:52:02.121Z,608.00
2023-02-21T05:53:02.066Z,604.80
2023-02-21T05:54:02.057Z,631.30
2023-02-21T05:55:02.044Z,606.20
2023-02-21T05:56:01.986Z,639.10
2023-02-21T05:57:02.008Z,612.10
2023-02-21T05:58:01.962Z,612.60
2023-02-21T05:59:01.956Z,625.30
2023-02-21T06:00:01.947Z,630.30
2023-02-21T06:01:01.927Z,625.70
2023-02-21T06:02:01.982Z,643.40
2023-02-21T06:03:04.710Z,640.20
2023-02-21T06:04:01.908Z,684.50
2023-02-21T06:05:01.880Z,646.60
2023-02-21T06:06:01.881Z,682.30
2023-02-21T06:07:01.875Z,602.90
2023-02-21T06:08:01.854Z,620.60
2023-02-21T06:09:01.855Z,639.40
2023-02-21T06:10:01.835Z,633.20
2023-02-21T06:11:01.819Z,608.30
2023-02-21T06:12:01.835Z,607.80
2023-02-21T06:13:01.801Z,642.30
2023-02-21T06:14:01.810Z,573.80
2023-02-21T06:15:01.781Z,625.70
2023-02-21T06:16:01.812Z,620.50
2023-02-21T06:17:01.770Z,554.80
2023-02-21T06:18:01.756Z,564.90
2023-02-21T06:19:01.738Z,601.60
2023-02-21T06:20:01.737Z,653.70
2023-02-21T06:21:01.725Z,652.50
2023-02-21T06:22:01.732Z,630.70
2023-02-21T06:23:01.697Z,637.00
2023-02-21T06:24:01.704Z,610.70
2023-02-21T06:25:01.677Z,643.90
2023-02-21T06:26:01.679Z,558.90
2023-02-21T06:27:01.681Z,603.90
2023-02-21T06:28:01.649Z,623.30
2023-02-21T06:29:01.642Z,627.80
2023-02-21T06:30:01.633Z,619.30
2023-02-21T06:31:01.657Z,633.20
2023-02-21T06:32:01.695Z,630.60
2023-02-21T06:33:01.609Z,615.80
2023-02-21T06:34:01.596Z,659.50
2023-02-21T06:35:01.592Z,697.20
2023-02-21T06:36:01.582Z,670.30
2023-02-21T06:37:01.602Z,665.50
2023-02-21T06:38:01.568Z,645.10
2023-02-21T06:39:01.549Z,668.40
2023-02-21T06:40:01.553Z,625.00
2023-02-21T06:41:01.530Z,657.40
2023-02-21T06:42:01.549Z,692.90
2023-02-21T06:43:01.505Z,653.10
2023-02-21T06:44:01.514Z,642.50
2023-02-21T06:45:01.492Z,621.00
2023-02-21T06:46:01.527Z,554.40
2023-02-21T06:47:01.513Z,655.80
2023-02-21T06:48:01.467Z,683.80
2023-02-21T06:49:01.450Z,622.30
2023-02-21T06:50:01.461Z,627.00
2023-02-21T06:51:01.434Z,602.80
2023-02-21T06:52:01.439Z,588.50
2023-02-21T06:53:01.413Z,598.40
2023-02-21T06:54:01.461Z,615.70
2023-02-21T06:55:01.395Z,643.60
2023-02-21T06:56:01.384Z,621.60
2023-02-21T06:57:01.388Z,625.80
2023-02-21T06:58:01.357Z,611.00
2023-02-21T06:59:01.369Z,681.50
2023-02-21T07:00:01.347Z,630.70
2023-02-21T07:01:01.336Z,651.40
2023-02-21T07:02:01.424Z,620.20
2023-02-21T07:03:01.315Z,641.20
2023-02-21T07:04:01.302Z,625.10
2023-02-21T07:05:01.354Z,655.50
2023-02-21T07:06:01.284Z,679.40
2023-02-21T07:07:01.285Z,695.50
2023-02-21T07:08:01.254Z,655.50
2023-02-21T07:09:01.315Z,678.60
2023-02-21T07:10:01.232Z,619.10
2023-02-21T07:11:01.228Z,653.50
2023-02-21T07:12:01.233Z,637.60
2023-02-21T07:13:01.209Z,689.60
2023-02-21T07:14:01.195Z,624.80
2023-02-21T07:15:01.199Z,625.10
2023-02-21T07:16:01.235Z,690.30
2023-02-21T07:17:01.194Z,690.90
2023-02-21T07:18:01.157Z,670.20
2023-02-21T07:19:01.153Z,618.10
2023-02-21T07:20:01.152Z,588.50
2023-02-21T07:21:01.126Z,613.70
2023-02-21T07:22:01.124Z,662.30
2023-02-21T07:23:01.104Z,641.40
2023-02-21T07:24:01.097Z,655.10
2023-02-21T07:25:01.092Z,633.00
2023-02-21T07:26:01.067Z,600.40
2023-02-21T07:27:01.061Z,612.40
2023-02-21T07:28:01.060Z,612.90
2023-02-21T07:29:01.085Z,633.00
2023-02-21T07:30:01.031Z,675.30
2023-02-21T07:31:01.034Z,633.20
2023-02-21T07:32:01.038Z,637.60
2023-02-21T07:33:01.016Z,581.50
2023-02-21T07:34:00.998Z,587.50
2023-02-21T07:35:01.015Z,581.70
2023-02-21T07:36:00.967Z,638.90
2023-02-21T07:37:00.963Z,584.50
2023-02-21T07:38:00.967Z,529.20
2023-02-21T07:39:00.947Z,555.70
2023-02-21T07:40:00.961Z,559.50
2023-02-21T07:41:00.931Z,525.10
2023-02-21T07:42:00.916Z,497.20
2023-02-21T07:43:00.915Z,475.50
2023-02-21T07:44:00.896Z,460.90
2023-02-21T07:45:00.884Z,452.50
2023-02-21T07:46:00.953Z,497.60
2023-02-21T07:47:00.858Z,418.00
2023-02-21T07:48:00.870Z,432.40
2023-02-21T07:49:00.837Z,434.60
2023-02-21T07:50:00.827Z,407.20
2023-02-21T07:51:00.832Z,418.70
2023-02-21T07:52:00.800Z,462.30
2023-02-21T07:53:00.835Z,471.10
2023-02-21T07:54:00.791Z,432.10
2023-02-21T07:55:00.769Z,451.10
2023-02-21T07:56:00.765Z,430.40
2023-02-21T07:57:00.752Z,422.90
2023-02-21T07:58:00.757Z,456.50
2023-02-21T07:59:00.741Z,373.10
2023-02-21T08:00:00.732Z,419.60
2023-02-21T08:01:00.728Z,399.20
2023-02-21T08:02:00.774Z,451.40
2023-02-21T08:03:00.722Z,387.90
2023-02-21T08:04:01.665Z,399.00
2023-02-21T08:05:00.716Z,406.30
2023-02-21T08:06:00.657Z,424.60
2023-02-21T08:07:00.697Z,397.90
2023-02-21T08:08:00.668Z,411.00
2023-02-21T08:09:00.625Z,391.10
2023-02-21T08:10:00.622Z,339.00
2023-02-21T08:11:00.605Z,373.30
2023-02-21T08:12:00.596Z,362.20
2023-02-21T08:13:00.581Z,339.70
2023-02-21T08:14:00.590Z,327.80
2023-02-21T08:15:00.565Z,315.60
2023-02-21T08:16:00.619Z,303.30
2023-02-21T08:17:00.543Z,331.80
2023-02-21T08:18:00.564Z,300.90
2023-02-21T08:19:00.517Z,259.80
2023-02-21T08:20:00.524Z,270.10
2023-02-21T08:21:00.509Z,303.40
2023-02-21T08:22:00.481Z,298.30
2023-02-21T08:23:00.488Z,285.20
2023-02-21T08:24:00.487Z,234.90
2023-02-21T08:25:00.474Z,257.50
2023-02-21T08:26:00.437Z,234.10
2023-02-21T08:27:00.429Z,252.10
2023-02-21T08:28:00.434Z,269.90
2023-02-21T08:29:00.416Z,238.10
2023-02-21T08:30:00.402Z,239.00
2023-02-21T08:31:00.386Z,257.10
2023-02-21T08:32:00.429Z,192.40
2023-02-21T08:33:00.421Z,202.70
2023-02-21T08:34:00.376Z,212.00
2023-02-21T08:35:00.345Z,202.80
2023-02-21T08:36:00.349Z,188.50
2023-02-21T08:37:00.376Z,198.10
2023-02-21T08:38:00.334Z,237.70
2023-02-21T08:39:00.299Z,263.40
2023-02-21T08:40:00.292Z,210.90
2023-02-21T08:41:00.282Z,212.70
2023-02-21T08:42:00.268Z,198.10
2023-02-21T08:43:00.301Z,177.60
2023-02-21T08:44:00.251Z,164.40
2023-02-21T08:45:00.252Z,193.70
2023-02-21T08:46:00.226Z,207.20
2023-02-21T08:47:00.370Z,156.00
2023-02-21T08:48:00.244Z,182.40
2023-02-21T08:49:00.229Z,180.90
2023-02-21T08:50:00.188Z,150.00
2023-02-21T08:51:00.216Z,159.90
2023-02-21T08:52:00.162Z,150.80
2023-02-21T08:53:00.170Z,162.80
2023-02-21T08:54:00.148Z,165.90
2023-02-21T08:55:00.141Z,179.90
2023-02-21T08:56:00.122Z,175.70
2023-02-21T08:57:00.130Z,196.40
2023-02-21T08:58:00.163Z,158.50
2023-02-21T08:59:00.174Z,177.20
2023-02-21T09:00:00.101Z,163.20
2023-02-21T09:01:00.131Z,197.30
2023-02-21T09:02:00.184Z,143.50
2023-02-21T09:03:00.074Z,166.40
2023-02-21T09:04:00.056Z,203.50
2023-02-21T09:05:00.041Z,163.60
2023-02-21T09:06:00.033Z,184.50
2023-02-21T09:07:00.023Z,225.20
2023-02-21T09:08:00.071Z,161.40
2023-02-21T09:09:00.000Z,185.60
2023-02-21T09:10:01.287Z,179.30
2023-02-21T09:11:00.001Z,165.80
2023-02-21T09:11:59.968Z,156.20
2023-02-21T09:12:59.970Z,191.30
2023-02-21T09:13:59.969Z,174.30
2023-02-21T09:14:59.935Z,204.60
2023-02-21T09:16:00.118Z,162.20
2023-02-21T09:16:59.917Z,185.30
2023-02-21T09:17:59.916Z,197.00
2023-02-21T09:18:59.897Z,173.60
2023-02-21T09:19:59.881Z,156.30
2023-02-21T09:20:59.875Z,202.40
2023-02-21T09:22:01.706Z,145.50
2023-02-21T09:22:59.870Z,161.40
2023-02-21T09:23:59.843Z,155.30
2023-02-21T09:24:59.835Z,169.30
2023-02-21T09:25:59.818Z,182.10
2023-02-21T09:26:59.861Z,154.90
2023-02-21T09:27:59.816Z,162.60
2023-02-21T09:28:59.807Z,156.30
2023-02-21T09:29:59.786Z,190.60
2023-02-21T09:30:59.775Z,190.80
2023-02-21T09:31:59.780Z,201.80
2023-02-21T09:32:59.785Z,181.20
2023-02-21T09:33:59.774Z,202.10
2023-02-21T09:34:59.737Z,184.80
2023-02-21T09:35:59.728Z,172.00
2023-02-21T09:36:59.758Z,179.50
2023-02-21T09:37:59.703Z,197.40
2023-02-21T09:39:00.098Z,171.20
2023-02-21T09:39:59.673Z,141.30
2023-02-21T09:40:59.668Z,155.60
2023-02-21T09:41:59.654Z,133.30
2023-02-21T09:42:59.668Z,153.70
2023-02-21T09:43:59.631Z,151.80
2023-02-21T09:44:59.631Z,158.00
2023-02-21T09:45:59.663Z,143.30
2023-02-21T09:46:59.608Z,130.90
2023-02-21T09:47:59.616Z,123.30
2023-02-21T09:48:59.592Z,97.60
2023-02-21T09:49:59.569Z,123.40
2023-02-21T09:50:59.561Z,132.40
2023-02-21T09:51:59.555Z,109.90
2023-02-21T09:52:59.572Z,95.70
2023-02-21T09:53:59.527Z,91.10
2023-02-21T09:54:59.519Z,90.90
2023-02-21T09:55:59.502Z,99.90
2023-02-21T09:56:59.501Z,87.90
2023-02-21T09:57:59.498Z,114.80
2023-02-21T09:58:59.480Z,87.20
2023-02-21T09:59:59.481Z,94.90
2023-02-21T10:00:59.503Z,98.80
2023-02-21T10:01:59.440Z,91.00
2023-02-21T10:02:59.460Z,80.10
2023-02-21T10:03:59.433Z,76.10
2023-02-21T10:04:59.515Z,87.70
2023-02-21T10:05:59.403Z,82.90
2023-02-21T10:06:59.427Z,89.10
2023-02-21T10:07:59.420Z,69.80
2023-02-21T10:08:59.371Z,86.90
2023-02-21T10:09:59.370Z,84.50
2023-02-21T10:10:59.357Z,94.20
2023-02-21T10:11:59.333Z,86.30
2023-02-21T10:12:59.344Z,95.00
2023-02-21T10:13:59.315Z,77.20
2023-02-21T10:14:59.336Z,99.50
2023-02-21T10:15:59.291Z,111.10
2023-02-21T10:16:59.530Z,86.60
2023-02-21T10:17:59.303Z,101.00
2023-02-21T10:18:59.269Z,92.20
2023-02-21T10:19:59.280Z,86.00
2023-02-21T10:20:59.249Z,103.60
2023-02-21T10:21:59.236Z,105.10
2023-02-21T10:22:59.256Z,112.70
2023-02-21T10:23:59.216Z,109.20
2023-02-21T10:24:59.219Z,82.70
2023-02-21T10:25:59.213Z,94.30
2023-02-21T10:26:59.192Z,97.30
2023-02-21T10:27:59.173Z,99.10
2023-02-21T10:28:59.208Z,97.70
2023-02-21T10:29:59.149Z,82.70
2023-02-21T10:30:59.334Z,102.10
2023-02-21T10:31:59.167Z,86.80
2023-02-21T10:32:59.122Z,94.20
2023-02-21T10:33:59.119Z,78.10
2023-02-21T10:34:59.105Z,69.30
2023-02-21T10:35:59.086Z,65.70
2023-02-21T10:36:59.166Z,65.20
2023-02-21T10:37:59.064Z,69.80
2023-02-21T10:38:59.084Z,71.20
2023-02-21T10:39:59.042Z,67.80
2023-02-21T10:40:59.049Z,64.80
2023-02-21T10:41:59.032Z,84.10
2023-02-21T10:42:59.023Z,66.30
2023-02-21T10:43:59.015Z,70.30
2023-02-21T10:44:59.013Z,79.00
2023-02-21T10:45:59.045Z,71.70
2023-02-21T10:46:58.974Z,67.80
2023-02-21T10:47:58.969Z,76.50
2023-02-21T10:48:58.972Z,82.90
2023-02-21T10:49:58.944Z,71.40
2023-02-21T10:50:58.937Z,74.30
2023-02-21T10:51:58.926Z,74.00
2023-02-21T10:52:58.925Z,88.30
2023-02-21T10:53:58.924Z,72.60
2023-02-21T10:54:58.902Z,91.30
2023-02-21T10:55:58.889Z,95.30
2023-02-21T10:56:58.881Z,96.60
2023-02-21T10:57:58.881Z,95.40
2023-02-21T10:58:58.870Z,78.50
2023-02-21T10:59:58.846Z,87.40
2023-02-21T11:00:58.869Z,98.00
2023-02-21T11:01:58.841Z,109.20
2023-02-21T11:02:58.814Z,81.00
2023-02-21T11:03:58.797Z,89.40
2023-02-21T11:04:58.799Z,89.30
2023-02-21T11:05:58.793Z,80.90
2023-02-21T11:06:58.769Z,86.00
2023-02-21T11:07:58.824Z,99.60
2023-02-21T11:08:58.835Z,100.40
2023-02-21T11:09:58.748Z,91.70
2023-02-21T11:10:58.735Z,102.30
2023-02-21T11:11:58.733Z,85.30
2023-02-21T11:12:58.707Z,85.80
2023-02-21T11:13:58.718Z,105.50
2023-02-21T11:14:58.689Z,106.00
2023-02-21T11:15:58.703Z,74.70
2023-02-21T11:16:58.664Z,78.70
2023-02-21T11:17:58.940Z,74.50
2023-02-21T11:18:58.690Z,111.80
2023-02-21T11:19:58.642Z,93.10
2023-02-21T11:20:58.626Z,87.20
2023-02-21T11:21:58.626Z,83.40
2023-02-21T11:22:58.609Z,82.80
2023-02-21T11:23:58.613Z,85.80
2023-02-21T11:24:58.581Z,84.10
2023-02-21T11:25:58.579Z,66.70
2023-02-21T11:26:58.586Z,69.50
2023-02-21T11:27:58.556Z,69.60
2023-02-21T11:28:58.560Z,75.00
2023-02-21T11:29:58.550Z,75.30
2023-02-21T11:30:58.597Z,75.70
2023-02-21T11:31:58.580Z,70.10
2023-02-21T11:32:58.544Z,67.80
2023-02-21T11:33:58.491Z,98.30
2023-02-21T11:34:58.478Z,74.00
2023-02-21T11:35:58.511Z,77.40
2023-02-21T11:36:58.454Z,112.30
2023-02-21T11:37:58.469Z,84.10
2023-02-21T11:38:58.441Z,89.40
2023-02-21T11:39:58.434Z,101.50
2023-02-21T11:40:58.503Z,102.40
2023-02-21T11:41:58.731Z,106.10
2023-02-21T11:42:58.401Z,99.60
2023-02-21T11:43:58.397Z,100.30
2023-02-21T11:44:58.396Z,115.60
2023-02-21T11:45:58.635Z,115.90
2023-02-21T11:46:58.367Z,103.10
2023-02-21T11:47:58.354Z,129.70
2023-02-21T11:48:58.382Z,129.20
2023-02-21T11:49:58.329Z,148.80
2023-02-21T11:50:58.321Z,117.70
2023-02-21T11:51:58.320Z,146.20
2023-02-21T11:52:58.297Z,124.50
2023-02-21T11:53:58.305Z,118.10
2023-02-21T11:54:58.276Z,128.40
2023-02-21T11:55:58.277Z,133.00
2023-02-21T11:56:58.257Z,125.50
2023-02-21T11:57:58.244Z,139.60
2023-02-21T11:58:58.282Z,128.10
2023-02-21T11:59:58.232Z,128.50
2023-02-21T12:00:58.208Z,151.30
2023-02-21T12:01:58.206Z,105.40
2023-02-21T12:02:58.188Z,142.20
2023-02-21T12:03:58.197Z,136.00
2023-02-21T12:04:58.165Z,126.90
2023-02-21T12:05:58.204Z,136.60
2023-02-21T12:06:58.160Z,156.90
2023-02-21T12:07:58.141Z,144.20
2023-02-21T12:08:58.141Z,127.90
2023-02-21T12:09:58.119Z,155.10
2023-02-21T12:10:58.102Z,158.80
2023-02-21T12:11:59.597Z,161.20
2023-02-21T12:12:58.086Z,176.50
2023-02-21T12:13:58.099Z,149.90
2023-02-21T12:14:58.064Z,153.70
2023-02-21T12:15:58.128Z,199.50
2023-02-21T12:16:58.043Z,150.80
2023-02-21T12:17:58.036Z,174.10
2023-02-21T12:18:58.029Z,153.60
2023-02-21T12:19:58.008Z,161.70
2023-02-21T12:20:57.997Z,173.80
2023-02-21T12:21:57.991Z,154.60
2023-02-21T12:22:57.975Z,167.40
2023-02-21T12:23:57.986Z,196.00
2023-02-21T12:24:57.980Z,161.20
2023-02-21T12:25:57.949Z,167.00
2023-02-21T12:26:57.946Z,154.90
2023-02-21T12:27:57.965Z,161.90
2023-02-21T12:28:58.132Z,157.40
2023-02-21T12:29:57.924Z,164.90
2023-02-21T12:30:57.912Z,177.70